Recent forum postings ...
Today
Change wake turbulence after filing FP
Yesterday
KLM-VA site "not responding", is my flight toast?
3 days ago
Fly KLM Mon CTL
2021-04-09
SCHEDULE FLIGHT BOEING 737
2021-04-08
Law and rules in KLM VA
2021-04-04
Flying a Tour.


 
Aircraft IdentFlightrulesType of Flight
KLM279IS
NumberType of AircraftWake turbulenceEquipmentTransponder Type
1B738MSS
Departure AerodromeDeparture Time
LOWI556
Cruising speedFlight level
M0077F330
Route
BRENO M726 NAXAV M984 EVANO N850 IXITO L50 UNITA M858 LIGUR



Destination AerodromeTotal EETAlternative Aerodrome
LFKC0100LFKB
Other information
DOF/210408 RMK/KLMVA RMK/NLSKILLLEG02

Explanation of the IVAO flightplan

Innsbruck (LOWI), Austria

METAR
LOWI 080450Z 07004KT 9000 -SHSN FEW008 SCT015 BKN035 M00/M02 Q1024 TEMPO 3000

WINDENE at 5 mph
VISIBILITY15 miles
CONDITIONSlight snow showers
CLOUDSmostly cloudy
TEMP32°F (0°C)
WIND CHILL27°F (-3°C)
DEWPT28°F (-2°C)
HUMIDITY87%
BAROMETER1024 hPa (30.24 in Hg)

St Catherine (LFKC), France

METAR
LFKC 080630Z AUTO 15006KT CAVOK 09/M02 Q1025 BECMG 23010G20KT

WINDSSE at 7 mph
VISIBILITYgreater than 7 miles
CONDITIONS
CLOUDSclear skies
TEMP48°F (9°C)
WIND CHILL45°F (7°C)
DEWPT28°F (-2°C)
HUMIDITY46%
BAROMETER1025 hPa (30.27 in Hg)

Registration TimeGroundspeedAltitudeTransponderHeadingLongitudeLatitudeOn ground
05:30 08-04-20210 kts1908 ft100016811.34947.2583Yes
05:330 kts1908 ft100016811.34947.2583Yes
05:3615 kts1908 ft100025711.342447.2583Yes
05:39148 kts2775 ft10008111.364147.2624No
05:42155 kts12026 ft100020611.542947.2419No
05:45347 kts15587 ft100021011.428847.0625No
05:48454 kts22316 ft100018911.349246.7264No
05:51421 kts28326 ft100025311.154846.406No
05:54431 kts32785 ft100025110.689746.2454No
05:57427 kts32853 ft100025010.249646.0904No
06:00435 kts32934 ft10002419.8196845.8909No
06:03435 kts32959 ft10002419.4022545.6755No
06:06435 kts32974 ft10002419.0037545.4666No
06:09494 kts32956 ft10001808.7764445.1553No
06:12493 kts32975 ft10001818.8149644.7443No
06:15492 kts33189 ft10001858.8493444.3508No
06:18493 kts25238 ft10001558.9738443.981No
06:21403 kts18291 ft10001898.9867443.6228No
06:24339 kts10739 ft10001878.9500543.3147No
06:27249 kts7325 ft10002038.8727543.1034No
06:30229 kts4006 ft10001798.7907942.9153No
06:33209 kts2995 ft10001808.7921142.7325No
06:36138 kts1494 ft10001808.7928942.6045No
06:39150 kts1414 ft10002728.805542.5007No
06:4218 kts217 ft10001798.7929642.5359Yes
06:450 kts217 ft10002668.7916242.5242Yes
06:480 kts217 ft10002668.7916242.5242Yes
06:510 kts217 ft10002668.7916242.5242Yes